createdAt,value
2023-03-25T00:03:43.361Z,3.15
2023-03-25T00:06:12.220Z,3.20
2023-03-25T00:08:38.952Z,2.42
2023-03-25T00:11:06.961Z,2.33
2023-03-25T00:13:34.059Z,3.92
2023-03-25T00:18:44.082Z,3.47
2023-03-25T00:21:11.569Z,2.03
2023-03-25T00:23:39.482Z,7.78
2023-03-25T00:26:06.377Z,1.30
2023-03-25T00:28:35.076Z,4.93
2023-03-25T00:38:56.673Z,4.53
2023-03-25T00:41:28.089Z,4.55
2023-03-25T00:43:56.567Z,5.28
2023-03-25T00:46:27.713Z,3.50
2023-03-25T00:51:53.044Z,4.90
2023-03-25T00:54:34.120Z,7.68
2023-03-25T00:57:01.032Z,5.57
2023-03-25T00:59:28.306Z,3.92
2023-03-25T01:04:27.413Z,8.65
2023-03-25T01:09:28.677Z,1.35
2023-03-25T01:11:55.309Z,3.42
2023-03-25T01:14:24.217Z,4.22
2023-03-25T01:16:52.548Z,3.53
2023-03-25T01:19:19.457Z,1.23
2023-03-25T01:24:31.385Z,4.88
2023-03-25T01:26:58.078Z,8.55
2023-03-25T01:29:24.763Z,2.72
2023-03-25T01:31:51.651Z,4.70
2023-03-25T01:34:18.373Z,8.88
2023-03-25T01:36:50.097Z,6.35
2023-03-25T01:39:18.732Z,13.25
2023-03-25T01:41:50.587Z,7.82
2023-03-25T01:44:20.959Z,10.23
2023-03-25T01:46:49.280Z,2.83
2023-03-25T01:49:29.915Z,4.88
2023-03-25T01:52:05.310Z,2.80
2023-03-25T01:54:32.613Z,2.78
2023-03-25T01:56:59.431Z,6.25
2023-03-25T01:59:28.132Z,5.15
2023-03-25T02:02:00.261Z,7.00
2023-03-25T02:06:58.374Z,3.70
2023-03-25T02:09:26.349Z,3.13
2023-03-25T02:11:54.947Z,5.70
2023-03-25T02:14:25.154Z,3.08
2023-03-25T02:16:55.942Z,4.30
2023-03-25T02:20:08.976Z,1.55
2023-03-25T02:22:59.935Z,5.35
2023-03-25T02:26:00.107Z,12.00
2023-03-25T02:28:42.478Z,3.30
2023-03-25T02:31:15.953Z,3.63
2023-03-25T02:33:58.560Z,5.30
2023-03-25T02:48:20.896Z,4.65
2023-03-25T02:50:55.382Z,6.03
2023-03-25T02:55:52.589Z,5.78
2023-03-25T02:58:21.384Z,3.80
2023-03-25T03:00:49.388Z,4.78
2023-03-25T03:03:16.198Z,4.00
2023-03-25T03:05:49.650Z,2.72
2023-03-25T03:08:41.412Z,1.90
2023-03-25T03:11:16.761Z,6.80
2023-03-25T03:14:21.217Z,5.05
2023-03-25T03:17:18.397Z,3.72
2023-03-25T03:19:58.376Z,3.95
2023-03-25T03:22:56.002Z,2.47
2023-03-25T03:25:41.125Z,6.75
2023-03-25T03:28:19.833Z,3.95
2023-03-25T03:30:54.335Z,8.75
2023-03-25T03:36:07.063Z,1.75
2023-03-25T03:38:39.356Z,3.35
2023-03-25T03:41:09.664Z,3.15
2023-03-25T03:43:49.033Z,2.58
2023-03-25T03:46:23.770Z,5.40
2023-03-25T03:48:56.641Z,4.40
2023-03-25T03:51:29.840Z,3.70
2023-03-25T03:54:06.415Z,3.30
2023-03-25T03:56:37.791Z,5.68
2023-03-25T03:59:27.337Z,2.53
2023-03-25T04:02:00.010Z,3.38
2023-03-25T04:04:27.004Z,4.13
2023-03-25T04:07:15.231Z,6.50
2023-03-25T04:10:02.601Z,2.95
2023-03-25T04:12:35.572Z,2.45
2023-03-25T04:23:21.981Z,3.17
2023-03-25T04:28:32.430Z,5.45
2023-03-25T04:31:00.458Z,4.55
2023-03-25T04:33:32.277Z,6.28
2023-03-25T04:38:34.658Z,3.60
2023-03-25T04:41:01.336Z,6.78
2023-03-25T04:43:28.407Z,3.72
2023-03-25T04:45:55.469Z,10.50
2023-03-25T04:48:30.058Z,5.65
2023-03-25T04:59:04.277Z,2.90
2023-03-25T05:01:31.145Z,2.90
2023-03-25T05:04:05.073Z,4.53
2023-03-25T05:06:35.798Z,4.13
2023-03-25T05:17:06.504Z,3.42
2023-03-25T05:19:35.150Z,4.07
2023-03-25T05:22:04.540Z,4.75
2023-03-25T05:24:31.286Z,6.55
2023-03-25T05:29:34.011Z,6.00
2023-03-25T05:32:01.031Z,3.75
2023-03-25T05:34:29.866Z,2.80
2023-03-25T05:36:56.764Z,5.20
2023-03-25T05:39:24.526Z,2.40
2023-03-25T05:47:33.699Z,2.92
2023-03-25T05:50:00.331Z,4.53
2023-03-25T05:52:27.403Z,3.42
2023-03-25T05:54:55.693Z,6.72
2023-03-25T05:57:28.731Z,1.98
2023-03-25T06:02:25.793Z,4.05
2023-03-25T06:04:52.575Z,2.80
2023-03-25T06:07:22.235Z,5.82
2023-03-25T06:09:50.067Z,9.77
2023-03-25T06:12:19.758Z,7.30
2023-03-25T06:14:56.739Z,7.00
2023-03-25T06:17:23.379Z,5.57
2023-03-25T06:19:51.248Z,7.18
2023-03-25T06:22:21.940Z,8.88
2023-03-25T06:24:48.757Z,3.03
2023-03-25T06:27:17.726Z,3.28
2023-03-25T06:29:44.824Z,5.93
2023-03-25T06:32:13.204Z,5.63
2023-03-25T06:34:42.413Z,5.68
2023-03-25T06:37:09.824Z,4.43
2023-03-25T06:39:37.772Z,2.85
2023-03-25T06:44:35.866Z,7.90
2023-03-25T06:47:04.425Z,0.68
2023-03-25T06:49:31.477Z,1.83
2023-03-25T06:51:58.368Z,6.43
2023-03-25T06:54:25.265Z,1.52
2023-03-25T06:56:51.970Z,5.53
2023-03-25T06:59:18.952Z,4.63
2023-03-25T07:01:45.621Z,8.13
2023-03-25T07:04:12.321Z,4.82
2023-03-25T07:06:39.024Z,2.85
2023-03-25T07:09:05.801Z,2.95
2023-03-25T07:17:08.716Z,3.78
2023-03-25T07:19:35.426Z,4.53
2023-03-25T07:22:02.033Z,3.58
2023-03-25T07:24:28.677Z,9.90
2023-03-25T07:26:55.257Z,5.18
2023-03-25T07:32:06.318Z,3.40
2023-03-25T07:34:32.911Z,5.30
2023-03-25T07:36:59.526Z,4.00
2023-03-25T07:39:26.181Z,3.50
2023-03-25T07:41:53.306Z,6.68
2023-03-25T07:47:08.350Z,3.97
2023-03-25T07:49:35.425Z,0.60
2023-03-25T07:52:02.017Z,1.15
2023-03-25T07:54:28.699Z,0.68
2023-03-25T07:56:55.542Z,0.50
2023-03-25T08:02:04.891Z,1.42
2023-03-25T08:04:32.050Z,0.47
2023-03-25T08:06:58.632Z,2.20
2023-03-25T08:09:25.318Z,3.20
2023-03-25T08:11:51.970Z,4.68
2023-03-25T08:16:55.179Z,0.43
2023-03-25T08:19:21.840Z,0.40
2023-03-25T08:21:48.387Z,1.75
2023-03-25T08:24:15.381Z,2.63
2023-03-25T08:26:42.583Z,1.30
2023-03-25T08:32:00.830Z,2.22
2023-03-25T08:34:29.016Z,0.68
2023-03-25T08:36:57.814Z,1.67
2023-03-25T08:39:29.892Z,3.17
2023-03-25T08:41:59.023Z,3.80
2023-03-25T08:44:26.219Z,3.50
2023-03-25T08:46:53.177Z,1.92
2023-03-25T08:49:20.377Z,2.03
2023-03-25T08:51:47.417Z,5.25
2023-03-25T08:54:14.628Z,1.88
2023-03-25T08:56:41.675Z,1.92
2023-03-25T09:01:55.359Z,3.60
2023-03-25T09:04:23.103Z,1.60
2023-03-25T09:07:11.874Z,0.52
2023-03-25T09:09:38.573Z,0.90
2023-03-25T09:12:06.690Z,2.13
2023-03-25T09:14:37.550Z,1.90
2023-03-25T09:19:46.603Z,3.08
2023-03-25T09:22:13.837Z,2.75
2023-03-25T09:24:41.129Z,3.08
2023-03-25T09:27:08.629Z,5.72
2023-03-25T09:29:36.423Z,4.13
2023-03-25T09:42:59.552Z,9.23
2023-03-25T09:45:26.995Z,4.97
2023-03-25T09:48:00.519Z,7.47
2023-03-25T09:50:29.980Z,6.07
2023-03-25T09:55:30.313Z,6.28
2023-03-25T09:58:10.829Z,8.27
2023-03-25T10:00:38.038Z,11.98
2023-03-25T10:03:08.129Z,4.07
2023-03-25T10:05:47.128Z,6.00
2023-03-25T10:08:32.717Z,10.23
2023-03-25T10:11:07.005Z,3.70
2023-03-25T10:13:34.946Z,8.48
2023-03-25T10:16:11.953Z,8.20
2023-03-25T10:18:53.471Z,7.90
2023-03-25T10:21:26.388Z,5.05
2023-03-25T10:23:56.129Z,6.63
2023-03-25T10:26:28.338Z,11.13
2023-03-25T10:31:31.999Z,15.48
2023-03-25T10:34:02.118Z,10.20
2023-03-25T10:36:34.976Z,11.02
2023-03-25T10:39:02.572Z,6.75
2023-03-25T10:41:37.690Z,12.35
2023-03-25T10:49:25.090Z,9.60
2023-03-25T10:51:57.594Z,8.43
2023-03-25T10:54:26.108Z,2.92
2023-03-25T10:56:54.062Z,7.10
2023-03-25T10:59:29.733Z,2.65
2023-03-25T11:01:58.033Z,7.88
2023-03-25T11:07:30.241Z,9.85
2023-03-25T11:10:20.757Z,7.88
2023-03-25T11:15:18.544Z,6.93
2023-03-25T11:17:46.874Z,5.97
2023-03-25T11:20:22.112Z,2.63
2023-03-25T11:22:51.859Z,8.55
2023-03-25T11:25:21.389Z,5.15
2023-03-25T11:27:50.755Z,10.55
2023-03-25T11:30:19.482Z,4.45
2023-03-25T11:32:51.217Z,7.30
2023-03-25T11:35:22.327Z,5.15
2023-03-25T11:37:54.540Z,5.85
2023-03-25T11:40:21.675Z,3.83
2023-03-25T11:42:56.979Z,6.28
2023-03-25T11:45:40.765Z,3.78
2023-03-25T11:48:15.640Z,7.90
2023-03-25T11:50:56.457Z,1.60
2023-03-25T11:53:25.858Z,1.70
2023-03-25T11:55:56.800Z,5.22
2023-03-25T11:58:40.952Z,5.13
2023-03-25T12:01:20.655Z,4.05
2023-03-25T12:03:47.940Z,5.70
2023-03-25T12:06:19.774Z,5.78
2023-03-25T12:08:49.967Z,4.18
2023-03-25T12:11:37.156Z,4.05
2023-03-25T12:17:04.419Z,4.97
2023-03-25T12:25:35.989Z,5.63
2023-03-25T12:36:56.215Z,5.32
2023-03-25T12:39:43.133Z,4.32
2023-03-25T12:42:33.432Z,3.05
2023-03-25T12:45:00.512Z,2.00
2023-03-25T12:47:41.749Z,6.30
2023-03-25T12:50:14.868Z,5.40
2023-03-25T12:52:50.972Z,6.10
2023-03-25T12:55:21.304Z,9.63
2023-03-25T13:03:40.276Z,8.10
2023-03-25T13:06:16.266Z,5.78
2023-03-25T13:09:04.513Z,8.23
2023-03-25T13:11:31.774Z,7.10
2023-03-25T13:14:02.717Z,4.00
2023-03-25T13:16:31.950Z,4.45
2023-03-25T13:18:59.058Z,7.13
2023-03-25T13:21:26.062Z,7.97
2023-03-25T13:23:58.902Z,7.68
2023-03-25T13:26:29.353Z,4.82
2023-03-25T13:31:25.069Z,4.45
2023-03-25T13:36:59.336Z,7.38
2023-03-25T13:39:31.897Z,1.98
2023-03-25T13:42:07.223Z,3.10
2023-03-25T13:44:39.770Z,4.38
2023-03-25T13:47:17.949Z,4.95
2023-03-25T13:49:54.162Z,4.85
2023-03-25T13:52:21.031Z,7.47
2023-03-25T13:54:53.769Z,4.15
2023-03-25T13:57:26.365Z,7.38
2023-03-25T14:00:12.152Z,9.10
2023-03-25T14:02:45.726Z,5.97
2023-03-25T14:05:32.097Z,5.45
2023-03-25T14:08:01.918Z,3.72
2023-03-25T14:10:34.795Z,2.88
2023-03-25T14:21:38.270Z,5.05
2023-03-25T14:24:11.287Z,6.82
2023-03-25T14:26:44.307Z,2.45
2023-03-25T14:29:21.766Z,4.30
2023-03-25T14:32:03.747Z,6.55
2023-03-25T14:34:30.742Z,6.82
2023-03-25T14:39:32.865Z,3.03
2023-03-25T14:42:01.739Z,8.27
2023-03-25T14:44:32.722Z,8.52
2023-03-25T14:47:02.064Z,5.43
2023-03-25T14:49:54.202Z,6.15
2023-03-25T14:52:47.779Z,6.72
2023-03-25T14:55:22.454Z,4.00
2023-03-25T15:03:05.282Z,6.35
2023-03-25T15:05:33.390Z,5.70
2023-03-25T15:08:10.631Z,5.53
2023-03-25T15:10:39.728Z,5.90
2023-03-25T15:13:09.422Z,7.68
2023-03-25T15:18:37.679Z,6.90
2023-03-25T15:21:04.778Z,9.55
2023-03-25T15:23:38.701Z,7.38
2023-03-25T15:26:06.209Z,6.90
2023-03-25T15:28:45.135Z,5.63
2023-03-25T15:31:23.312Z,11.73
2023-03-25T15:42:17.460Z,6.50
2023-03-25T15:45:13.047Z,5.68
2023-03-25T15:48:07.680Z,3.80
2023-03-25T15:50:52.813Z,11.68
2023-03-25T15:53:41.845Z,6.78
2023-03-25T15:56:14.910Z,7.33
2023-03-25T15:58:58.374Z,8.40
2023-03-25T16:01:30.211Z,5.80
2023-03-25T16:04:06.640Z,4.90
2023-03-25T16:09:28.690Z,8.85
2023-03-25T16:17:35.779Z,5.53
2023-03-25T16:20:06.161Z,11.73
2023-03-25T16:22:34.943Z,11.02
2023-03-25T16:25:03.542Z,10.18
2023-03-25T16:30:23.718Z,8.88
2023-03-25T16:32:57.738Z,3.67
2023-03-25T16:35:29.453Z,7.93
2023-03-25T16:40:32.269Z,9.68
2023-03-25T16:43:06.742Z,8.13
2023-03-25T16:48:09.650Z,6.35
2023-03-25T16:50:36.901Z,3.63
2023-03-25T16:53:05.322Z,7.32
2023-03-25T16:56:02.988Z,4.78
2023-03-25T17:01:10.774Z,7.90
2023-03-25T17:16:51.944Z,3.45
2023-03-25T17:19:20.116Z,4.97
2023-03-25T17:22:16.463Z,6.47
2023-03-25T17:24:48.666Z,8.50
2023-03-25T17:33:10.390Z,8.05
2023-03-25T17:35:58.622Z,7.78
2023-03-25T17:38:37.261Z,7.75
2023-03-25T17:41:08.361Z,15.68
2023-03-25T17:43:37.129Z,11.45
2023-03-25T17:46:06.229Z,6.75
2023-03-25T17:48:33.200Z,4.55
2023-03-25T17:51:00.352Z,7.05
2023-03-25T17:53:27.497Z,10.55
2023-03-25T17:55:55.016Z,5.35
2023-03-25T17:58:23.087Z,3.50
2023-03-25T18:00:51.846Z,7.13
2023-03-25T18:06:02.418Z,11.27
2023-03-25T18:08:29.849Z,7.18
2023-03-25T18:10:57.434Z,7.93
2023-03-25T18:13:26.110Z,5.30
2023-03-25T18:15:53.821Z,10.70
2023-03-25T18:18:20.783Z,7.75
2023-03-25T18:20:47.981Z,10.63
2023-03-25T18:23:15.473Z,10.73
2023-03-25T18:25:44.731Z,10.77
2023-03-25T18:28:13.189Z,9.30
2023-03-25T18:30:48.979Z,10.98
2023-03-25T18:33:22.471Z,13.47
2023-03-25T18:35:52.455Z,7.88
2023-03-25T18:38:21.291Z,12.98
2023-03-25T18:40:49.024Z,7.43
2023-03-25T18:43:16.304Z,10.30
2023-03-25T18:45:43.928Z,7.78
2023-03-25T18:50:52.300Z,10.50
2023-03-25T18:53:21.067Z,5.95
2023-03-25T18:55:48.308Z,11.35
2023-03-25T18:58:23.095Z,3.55
2023-03-25T19:00:53.894Z,11.18
2023-03-25T19:03:30.316Z,9.60
2023-03-25T19:08:44.091Z,8.75
2023-03-25T19:11:20.934Z,3.78
2023-03-25T19:13:50.028Z,11.57
2023-03-25T19:16:17.151Z,8.55
2023-03-25T19:18:44.234Z,6.68
2023-03-25T19:21:14.928Z,7.45
2023-03-25T19:23:42.903Z,9.35
2023-03-25T19:26:09.912Z,9.70
2023-03-25T19:28:36.981Z,10.75
2023-03-25T19:31:04.148Z,7.72
2023-03-25T19:33:32.021Z,8.55
2023-03-25T19:36:05.463Z,8.05
2023-03-25T19:38:32.946Z,9.60
2023-03-25T19:41:05.641Z,8.38
2023-03-25T19:43:32.906Z,9.23
2023-03-25T19:46:00.471Z,10.57
2023-03-25T19:48:27.781Z,7.18
2023-03-25T19:53:28.850Z,8.70
2023-03-25T19:55:56.819Z,8.68
2023-03-25T19:58:24.697Z,14.82
2023-03-25T20:00:52.907Z,13.77
2023-03-25T20:03:22.557Z,15.18
2023-03-25T20:05:56.442Z,8.10
2023-03-25T20:08:23.492Z,8.82
2023-03-25T20:10:51.132Z,11.25
2023-03-25T20:13:18.526Z,12.73
2023-03-25T20:15:45.935Z,8.52
2023-03-25T20:18:13.076Z,10.95
2023-03-25T20:20:40.457Z,11.38
2023-03-25T20:23:07.643Z,4.88
2023-03-25T20:25:34.888Z,9.10
2023-03-25T20:28:01.963Z,11.32
2023-03-25T20:30:29.347Z,10.82
2023-03-25T20:32:58.049Z,8.77
2023-03-25T20:35:25.650Z,13.30
2023-03-25T20:37:52.692Z,8.82
2023-03-25T20:40:23.426Z,18.10
2023-03-25T20:42:54.999Z,15.43
2023-03-25T20:45:22.277Z,10.13
2023-03-25T20:47:49.390Z,11.35
2023-03-25T20:50:16.586Z,8.30
2023-03-25T20:52:45.237Z,9.15
2023-03-25T20:55:12.317Z,11.55
2023-03-25T20:57:39.609Z,11.05
2023-03-25T21:00:07.618Z,16.10
2023-03-25T21:02:42.536Z,11.90
2023-03-25T21:05:09.729Z,14.00
2023-03-25T21:07:37.738Z,11.20
2023-03-25T21:10:05.431Z,7.57
2023-03-25T21:12:42.617Z,10.85
2023-03-25T21:15:10.652Z,8.52
2023-03-25T21:17:41.496Z,10.77
2023-03-25T21:20:09.275Z,11.25
2023-03-25T21:22:42.548Z,16.23
2023-03-25T21:25:10.291Z,13.73
2023-03-25T21:27:38.390Z,8.07
2023-03-25T21:30:07.720Z,13.10
2023-03-25T21:32:42.378Z,11.90
2023-03-25T21:35:09.659Z,12.55
2023-03-25T21:37:40.526Z,16.25
2023-03-25T21:40:10.327Z,9.23
2023-03-25T21:42:38.734Z,11.35
2023-03-25T21:45:08.395Z,12.60
2023-03-25T21:56:10.073Z,12.10
2023-03-25T21:58:39.817Z,14.60
2023-03-25T22:01:10.205Z,12.68
2023-03-25T22:03:38.185Z,10.00
2023-03-25T22:06:06.559Z,17.17
2023-03-25T22:08:33.606Z,12.98
2023-03-25T22:11:07.948Z,13.32
2023-03-25T22:13:34.947Z,11.65
2023-03-25T22:16:02.038Z,15.18
2023-03-25T22:18:29.474Z,14.00
2023-03-25T22:21:05.704Z,23.80
2023-03-25T22:23:32.722Z,13.63
2023-03-25T22:25:59.796Z,16.30
2023-03-25T22:28:26.878Z,11.88
2023-03-25T22:30:54.007Z,14.20
2023-03-25T22:33:21.366Z,18.77
2023-03-25T22:35:50.998Z,12.73
2023-03-25T22:38:26.225Z,11.93
2023-03-25T22:40:53.245Z,8.80
2023-03-25T22:43:20.501Z,13.25
2023-03-25T22:45:47.586Z,15.52
2023-03-25T22:48:14.684Z,18.63
2023-03-25T22:50:41.700Z,12.63
2023-03-25T22:55:55.122Z,19.05
2023-03-25T22:58:23.570Z,19.80
2023-03-25T23:00:51.173Z,10.95
2023-03-25T23:03:18.341Z,14.55
2023-03-25T23:05:47.227Z,15.48
2023-03-25T23:10:50.441Z,15.25
2023-03-25T23:13:20.623Z,13.88
2023-03-25T23:15:47.725Z,21.38
2023-03-25T23:18:14.861Z,18.95
2023-03-25T23:20:41.985Z,13.23
2023-03-25T23:23:16.233Z,15.82
2023-03-25T23:25:43.225Z,22.48
2023-03-25T23:28:12.285Z,18.48
2023-03-25T23:30:39.349Z,11.88
2023-03-25T23:33:06.507Z,15.90
2023-03-25T23:35:33.640Z,15.80
2023-03-25T23:40:43.531Z,14.15
2023-03-25T23:43:10.892Z,11.90
2023-03-25T23:45:37.934Z,15.55
2023-03-25T23:48:05.352Z,12.18
2023-03-25T23:50:32.519Z,12.27
2023-03-25T23:55:46.159Z,16.20
2023-03-25T23:58:13.482Z,23.55
